createdAt,value
2018-01-29T00:00:44.883Z,81.69
2018-01-29T00:03:12.604Z,81.82
2018-01-29T00:05:40.107Z,81.74
2018-01-29T00:08:07.592Z,81.47
2018-01-29T00:10:35.087Z,81.55
2018-01-29T00:13:02.631Z,81.90
2018-01-29T00:15:30.107Z,81.47
2018-01-29T00:17:58.682Z,81.72
2018-01-29T00:20:26.441Z,81.44
2018-01-29T00:22:54.235Z,81.43
2018-01-29T00:25:21.715Z,81.40
2018-01-29T00:27:50.846Z,81.37
2018-01-29T00:30:18.904Z,81.22
2018-01-29T00:32:46.366Z,81.19
2018-01-29T00:35:13.900Z,81.10
2018-01-29T00:37:41.403Z,81.18
2018-01-29T00:40:08.878Z,81.49
2018-01-29T00:42:36.334Z,81.66
2018-01-29T00:45:04.042Z,81.24
2018-01-29T00:47:32.055Z,81.21
2018-01-29T00:49:59.640Z,81.56
2018-01-29T00:52:27.132Z,81.49
2018-01-29T00:54:55.008Z,81.56
2018-01-29T00:57:22.547Z,81.63
2018-01-29T00:59:50.091Z,81.68
2018-01-29T01:02:18.151Z,81.52
2018-01-29T01:04:47.652Z,81.45
2018-01-29T01:07:15.744Z,81.46
2018-01-29T01:09:43.631Z,80.07
2018-01-29T01:12:12.030Z,80.14
2018-01-29T01:14:39.535Z,79.87
2018-01-29T01:17:07.058Z,80.45
2018-01-29T01:19:34.580Z,80.24
2018-01-29T01:22:02.443Z,80.41
2018-01-29T01:24:29.971Z,80.77
2018-01-29T01:26:57.458Z,79.04
2018-01-29T01:29:24.999Z,79.43
2018-01-29T01:31:52.863Z,79.70
2018-01-29T01:34:20.417Z,79.89
2018-01-29T01:36:48.163Z,79.42
2018-01-29T01:39:15.642Z,79.11
2018-01-29T01:41:43.128Z,79.24
2018-01-29T01:44:10.897Z,79.74
2018-01-29T01:46:38.364Z,79.68
2018-01-29T01:49:06.715Z,79.99
2018-01-29T01:51:34.223Z,80.19
2018-01-29T01:54:01.762Z,80.40
2018-01-29T01:56:29.923Z,80.32
2018-01-29T01:58:57.425Z,80.75
2018-01-29T02:01:24.919Z,81.16
2018-01-29T02:03:52.390Z,81.36
2018-01-29T02:06:19.922Z,81.05
2018-01-29T02:08:47.844Z,81.18
2018-01-29T02:11:15.370Z,80.88
2018-01-29T02:13:43.098Z,79.99
2018-01-29T02:16:10.869Z,80.40
2018-01-29T02:18:38.331Z,80.64
2018-01-29T02:21:05.816Z,80.73
2018-01-29T02:23:33.499Z,81.03
2018-01-29T02:26:01.211Z,81.17
2018-01-29T02:28:28.947Z,80.77
2018-01-29T02:30:56.704Z,81.16
2018-01-29T02:33:24.395Z,80.68
2018-01-29T02:35:51.907Z,80.36
2018-01-29T02:38:20.102Z,80.54
2018-01-29T02:40:47.587Z,80.68
2018-01-29T02:43:15.296Z,81.06
2018-01-29T02:45:42.806Z,80.95
2018-01-29T02:48:10.531Z,80.68
2018-01-29T02:50:38.051Z,80.70
2018-01-29T02:53:05.527Z,80.12
2018-01-29T02:55:33.043Z,80.22
2018-01-29T02:58:00.537Z,79.84
2018-01-29T03:00:28.015Z,78.78
2018-01-29T03:02:55.502Z,78.41
2018-01-29T03:05:23.057Z,77.89
2018-01-29T03:07:51.220Z,78.28
2018-01-29T03:10:18.786Z,78.00
2018-01-29T03:12:46.278Z,78.55
2018-01-29T03:15:13.766Z,78.29
2018-01-29T03:17:41.294Z,77.91
2018-01-29T03:20:08.810Z,78.24
2018-01-29T03:22:37.070Z,78.78
2018-01-29T03:25:04.562Z,78.98
2018-01-29T03:27:32.260Z,79.19
2018-01-29T03:30:00.353Z,79.01
2018-01-29T03:32:27.846Z,79.51
2018-01-29T03:34:55.408Z,79.83
2018-01-29T03:37:23.372Z,80.13
2018-01-29T03:39:50.831Z,80.46
2018-01-29T03:42:18.607Z,80.89
2018-01-29T03:44:47.855Z,81.25
2018-01-29T03:47:15.571Z,81.74
2018-01-29T03:49:43.040Z,82.23
2018-01-29T03:52:10.905Z,82.22
2018-01-29T03:54:38.662Z,82.43
2018-01-29T03:57:06.190Z,82.14
2018-01-29T03:59:33.655Z,81.84
2018-01-29T04:02:01.884Z,81.23
2018-01-29T04:04:30.116Z,81.13
2018-01-29T04:06:58.439Z,81.74
2018-01-29T04:09:26.391Z,81.59
2018-01-29T04:11:53.981Z,81.39
2018-01-29T04:14:21.763Z,82.06
2018-01-29T04:16:49.284Z,81.35
2018-01-29T04:19:17.300Z,81.70
2018-01-29T04:21:44.778Z,81.72
2018-01-29T04:24:12.266Z,81.71
2018-01-29T04:26:40.071Z,81.46
2018-01-29T04:29:07.567Z,81.93
2018-01-29T04:31:35.335Z,81.65
2018-01-29T04:34:02.862Z,82.32
2018-01-29T04:36:30.402Z,82.52
2018-01-29T04:38:58.241Z,82.88
2018-01-29T04:41:25.790Z,83.00
2018-01-29T04:43:54.175Z,82.81
2018-01-29T04:46:23.460Z,82.43
2018-01-29T04:48:52.230Z,82.28
2018-01-29T04:51:21.716Z,82.04
2018-01-29T04:53:49.439Z,81.58
2018-01-29T04:56:17.182Z,81.89
2018-01-29T04:58:44.703Z,80.96
2018-01-29T05:01:12.223Z,81.00
2018-01-29T05:03:39.936Z,80.51
2018-01-29T05:06:07.447Z,80.00
2018-01-29T05:08:35.305Z,80.05
2018-01-29T05:11:03.914Z,80.82
2018-01-29T05:13:32.263Z,81.44
2018-01-29T05:16:00.006Z,80.86
2018-01-29T05:18:28.662Z,81.35
2018-01-29T05:20:56.126Z,80.88
2018-01-29T05:23:23.895Z,80.96
2018-01-29T05:25:51.911Z,80.93
2018-01-29T05:28:20.127Z,80.85
2018-01-29T05:30:48.099Z,80.71
2018-01-29T05:33:15.810Z,80.48
2018-01-29T05:38:46.987Z,80.82
2018-01-29T05:41:14.434Z,80.46
2018-01-29T05:43:41.915Z,80.09
2018-01-29T05:46:09.362Z,79.90
2018-01-29T05:48:36.851Z,79.50
2018-01-29T05:51:04.312Z,79.77
2018-01-29T05:53:31.793Z,80.29
2018-01-29T05:55:59.247Z,80.12
2018-01-29T05:58:26.722Z,80.02
2018-01-29T06:00:54.178Z,80.01
2018-01-29T06:03:21.663Z,79.79
2018-01-29T06:05:49.123Z,79.46
2018-01-29T06:08:16.594Z,79.47
2018-01-29T06:10:44.059Z,78.91
2018-01-29T06:13:11.541Z,79.05
2018-01-29T06:15:38.998Z,79.47
2018-01-29T06:18:06.475Z,79.76
2018-01-29T06:20:33.927Z,79.49
2018-01-29T06:23:01.414Z,79.69
2018-01-29T06:25:28.878Z,79.91
2018-01-29T06:27:56.356Z,79.63
2018-01-29T06:30:23.824Z,79.54
2018-01-29T06:32:51.300Z,79.40
2018-01-29T06:35:18.757Z,79.54
2018-01-29T06:37:46.235Z,76.55
2018-01-29T06:40:13.690Z,77.85
2018-01-29T06:42:41.175Z,77.41
2018-01-29T06:45:08.631Z,76.91
2018-01-29T06:47:36.106Z,76.97
2018-01-29T06:50:03.558Z,76.59
2018-01-29T06:52:31.036Z,76.90
2018-01-29T06:54:58.565Z,77.28
2018-01-29T06:57:26.054Z,77.32
2018-01-29T06:59:53.514Z,76.73
2018-01-29T07:02:20.970Z,76.98
2018-01-29T07:04:48.458Z,77.29
2018-01-29T07:07:15.963Z,77.69
2018-01-29T07:09:43.416Z,77.92
2018-01-29T07:12:10.881Z,77.37
2018-01-29T07:14:38.366Z,77.55
2018-01-29T07:17:05.827Z,77.45
2018-01-29T07:19:33.334Z,77.73
2018-01-29T07:22:00.803Z,77.90
2018-01-29T07:24:28.278Z,78.25
2018-01-29T07:26:55.739Z,77.86
2018-01-29T07:29:23.227Z,77.89
2018-01-29T07:31:50.691Z,78.29
2018-01-29T07:34:18.175Z,78.37
2018-01-29T07:36:45.638Z,77.68
2018-01-29T07:39:13.136Z,78.05
2018-01-29T07:41:40.595Z,78.26
2018-01-29T07:44:08.079Z,77.34
2018-01-29T07:46:35.544Z,77.06
2018-01-29T07:49:03.039Z,75.56
2018-01-29T07:51:30.509Z,76.09
2018-01-29T07:53:58.000Z,76.75
2018-01-29T07:56:25.463Z,76.40
2018-01-29T07:58:52.947Z,76.71
2018-01-29T08:01:20.422Z,74.93
2018-01-29T08:03:47.903Z,75.34
2018-01-29T08:06:15.364Z,74.94
2018-01-29T08:08:42.847Z,74.93
2018-01-29T08:11:10.311Z,74.54
2018-01-29T08:13:37.771Z,75.42
2018-01-29T08:16:05.261Z,74.99
2018-01-29T08:18:32.763Z,75.22
2018-01-29T08:21:00.243Z,75.65
2018-01-29T08:23:27.715Z,75.40
2018-01-29T08:25:55.193Z,74.99
2018-01-29T08:28:22.655Z,75.46
2018-01-29T08:30:50.160Z,74.66
2018-01-29T08:33:17.627Z,74.89
2018-01-29T08:35:45.124Z,74.80
2018-01-29T08:38:12.605Z,74.82
2018-01-29T08:40:40.096Z,75.26
2018-01-29T08:43:07.566Z,75.17
2018-01-29T08:45:35.057Z,74.60
2018-01-29T08:48:02.527Z,74.08
2018-01-29T08:50:30.017Z,73.96
2018-01-29T08:52:57.479Z,73.84
2018-01-29T08:55:24.998Z,73.52
2018-01-29T08:57:52.458Z,73.88
2018-01-29T09:00:19.935Z,73.45
2018-01-29T09:02:47.508Z,73.71
2018-01-29T09:05:14.996Z,73.93
2018-01-29T09:07:42.463Z,74.02
2018-01-29T09:10:10.055Z,74.68
2018-01-29T09:12:37.516Z,74.78
2018-01-29T09:15:05.008Z,74.21
2018-01-29T09:17:32.477Z,74.20
2018-01-29T09:19:59.943Z,74.43
2018-01-29T09:22:27.424Z,74.57
2018-01-29T09:24:54.892Z,74.57
2018-01-29T09:27:22.367Z,73.78
2018-01-29T09:29:49.835Z,73.55
2018-01-29T09:32:17.323Z,72.11
2018-01-29T09:34:44.787Z,71.96
2018-01-29T09:37:12.273Z,71.74
2018-01-29T09:39:39.741Z,72.67
2018-01-29T09:42:07.240Z,72.66
2018-01-29T09:44:34.704Z,72.95
2018-01-29T09:47:02.195Z,73.11
2018-01-29T09:49:29.663Z,73.21
2018-01-29T09:51:57.149Z,73.16
2018-01-29T09:54:24.608Z,72.89
2018-01-29T09:56:52.094Z,72.86
2018-01-29T09:59:19.571Z,72.26
2018-01-29T10:01:47.068Z,71.73
2018-01-29T10:04:14.543Z,71.43
2018-01-29T10:06:44.683Z,71.56
2018-01-29T10:09:12.140Z,71.48
2018-01-29T10:11:39.626Z,71.03
2018-01-29T10:14:07.078Z,70.94
2018-01-29T10:16:34.555Z,71.22
2018-01-29T10:19:02.015Z,71.05
2018-01-29T10:21:29.503Z,71.43
2018-01-29T10:23:56.962Z,71.64
2018-01-29T10:26:24.456Z,71.27
2018-01-29T10:28:51.927Z,71.34
2018-01-29T10:31:19.411Z,70.60
2018-01-29T10:33:47.521Z,71.05
2018-01-29T10:36:15.009Z,70.71
2018-01-29T10:38:42.473Z,70.07
2018-01-29T10:41:09.943Z,70.23
2018-01-29T10:43:37.452Z,70.88
2018-01-29T10:46:04.886Z,70.53
2018-01-29T10:48:32.353Z,70.08
2018-01-29T10:51:00.954Z,69.50
2018-01-29T10:53:28.433Z,69.62
2018-01-29T10:55:55.897Z,70.48
2018-01-29T10:58:23.375Z,70.17
2018-01-29T11:00:56.459Z,70.78
2018-01-29T11:03:23.930Z,70.11
2018-01-29T11:05:51.390Z,69.91
2018-01-29T11:08:18.863Z,70.39
2018-01-29T11:10:46.377Z,70.04
2018-01-29T11:13:13.917Z,68.93
2018-01-29T11:15:41.409Z,69.60
2018-01-29T11:18:08.971Z,69.96
2018-01-29T11:20:36.523Z,69.35
2018-01-29T11:23:04.060Z,69.05
2018-01-29T11:25:31.594Z,69.56
2018-01-29T11:27:59.085Z,69.06
2018-01-29T11:30:26.603Z,68.70
2018-01-29T11:32:54.127Z,70.11
2018-01-29T11:35:21.583Z,69.57
2018-01-29T11:37:49.082Z,69.60
2018-01-29T11:40:16.629Z,68.43
2018-01-29T11:42:44.103Z,68.76
2018-01-29T11:45:11.616Z,69.13
2018-01-29T11:47:39.131Z,68.88
2018-01-29T11:50:06.630Z,69.13
2018-01-29T11:52:34.103Z,69.33
2018-01-29T11:55:01.611Z,70.04
2018-01-29T11:57:29.083Z,69.67
2018-01-29T11:59:56.611Z,69.22
2018-01-29T12:02:24.106Z,69.01
2018-01-29T12:04:51.626Z,68.46
2018-01-29T12:07:19.148Z,69.05
2018-01-29T12:09:46.627Z,68.71
2018-01-29T12:12:14.134Z,69.00
2018-01-29T12:14:41.679Z,68.23
2018-01-29T12:17:09.171Z,68.58
2018-01-29T12:19:36.712Z,69.01
2018-01-29T12:22:04.194Z,68.76
2018-01-29T12:24:31.670Z,69.15
2018-01-29T12:26:59.154Z,69.31
2018-01-29T12:29:26.654Z,68.73
2018-01-29T12:31:54.151Z,68.85
2018-01-29T12:34:21.647Z,69.03
2018-01-29T12:36:49.211Z,70.12
2018-01-29T12:39:16.682Z,69.21
2018-01-29T12:41:44.227Z,69.58
2018-01-29T12:44:11.717Z,69.31
2018-01-29T12:46:39.256Z,69.32
2018-01-29T12:49:06.804Z,69.78
2018-01-29T12:51:34.374Z,70.03
2018-01-29T12:54:01.857Z,69.75
2018-01-29T12:56:29.318Z,69.96
2018-01-29T12:58:56.794Z,69.18
2018-01-29T13:01:24.288Z,68.71
2018-01-29T13:03:51.863Z,70.14
2018-01-29T13:06:19.319Z,70.21
2018-01-29T13:08:46.793Z,69.46
2018-01-29T13:11:14.287Z,70.29
2018-01-29T13:13:41.792Z,70.31
2018-01-29T13:16:09.270Z,70.81
2018-01-29T13:18:36.851Z,69.88
2018-01-29T13:21:04.338Z,70.31
2018-01-29T13:23:31.859Z,70.63
2018-01-29T13:25:59.327Z,69.85
2018-01-29T13:28:26.926Z,70.97
2018-01-29T13:30:54.384Z,71.10
2018-01-29T13:33:21.854Z,71.11
2018-01-29T13:35:49.310Z,70.89
2018-01-29T13:38:16.798Z,70.76
2018-01-29T13:40:44.279Z,71.40
2018-01-29T13:43:11.754Z,71.22
2018-01-29T13:45:39.256Z,71.42
2018-01-29T13:48:06.710Z,70.97
2018-01-29T13:50:34.214Z,70.77
2018-01-29T13:53:01.706Z,71.80
2018-01-29T13:55:29.211Z,71.69
2018-01-29T13:57:56.716Z,71.93
2018-01-29T14:00:24.199Z,71.12
2018-01-29T14:02:51.672Z,71.15
2018-01-29T14:05:19.271Z,71.19
2018-01-29T14:07:46.762Z,71.40
2018-01-29T14:10:14.279Z,71.87
2018-01-29T14:12:41.734Z,71.96
2018-01-29T14:15:09.270Z,72.10
2018-01-29T14:17:36.780Z,72.11
2018-01-29T14:20:04.363Z,72.33
2018-01-29T14:22:32.055Z,72.03
2018-01-29T14:24:59.655Z,72.47
2018-01-29T14:27:27.137Z,71.46
2018-01-29T14:29:56.358Z,71.27
2018-01-29T14:32:23.814Z,72.66
2018-01-29T14:34:51.340Z,71.37
2018-01-29T14:37:18.911Z,71.87
2018-01-29T14:39:46.963Z,71.33
2018-01-29T14:42:14.467Z,71.32
2018-01-29T14:44:41.964Z,71.38
2018-01-29T14:47:10.731Z,70.92
2018-01-29T14:49:38.227Z,71.41
2018-01-29T14:52:06.487Z,70.98
2018-01-29T14:54:34.073Z,71.07
2018-01-29T14:57:02.789Z,71.24
2018-01-29T14:59:30.286Z,70.89
2018-01-29T15:01:58.621Z,70.10
2018-01-29T15:04:26.178Z,70.45
2018-01-29T15:06:54.014Z,71.02
2018-01-29T15:09:21.515Z,71.08
2018-01-29T15:11:50.086Z,70.11
2018-01-29T15:14:18.364Z,69.96
2018-01-29T15:16:45.893Z,69.56
2018-01-29T15:19:14.327Z,70.06
2018-01-29T15:21:42.190Z,70.49
2018-01-29T15:24:09.742Z,70.01
2018-01-29T15:26:37.286Z,70.08
2018-01-29T15:29:05.061Z,70.04
2018-01-29T15:31:32.943Z,68.96
2018-01-29T15:34:00.763Z,69.52
2018-01-29T15:36:29.250Z,70.07
2018-01-29T15:38:57.114Z,70.39
2018-01-29T15:41:24.627Z,69.21
2018-01-29T15:43:52.591Z,69.56
2018-01-29T15:46:20.410Z,70.21
2018-01-29T15:48:49.598Z,69.06
2018-01-29T15:51:17.074Z,69.69
2018-01-29T15:53:44.607Z,70.08
2018-01-29T15:56:12.750Z,70.33
2018-01-29T15:58:40.618Z,71.34
2018-01-29T16:01:08.470Z,70.00
2018-01-29T16:03:36.306Z,70.45
2018-01-29T16:06:04.063Z,70.56
2018-01-29T16:08:31.815Z,70.99
2018-01-29T16:10:59.329Z,70.43
2018-01-29T16:13:27.316Z,70.31
2018-01-29T16:15:55.535Z,70.39
2018-01-29T16:18:23.622Z,70.67
2018-01-29T16:20:51.567Z,70.87
2018-01-29T16:23:20.195Z,71.30
2018-01-29T16:25:49.149Z,71.56
2018-01-29T16:28:17.425Z,72.55
2018-01-29T16:30:45.335Z,72.61
2018-01-29T16:33:13.616Z,73.24
2018-01-29T16:35:41.311Z,73.15
2018-01-29T16:38:08.862Z,73.02
2018-01-29T16:40:37.330Z,72.74
2018-01-29T16:43:04.884Z,72.58
2018-01-29T16:45:32.479Z,72.64
2018-01-29T16:47:59.964Z,71.73
2018-01-29T16:50:27.460Z,71.40
2018-01-29T16:52:55.396Z,71.28
2018-01-29T16:55:23.476Z,71.56
2018-01-29T16:57:51.030Z,72.10
2018-01-29T17:00:18.918Z,72.01
2018-01-29T17:02:46.502Z,72.15
2018-01-29T17:05:14.051Z,72.26
2018-01-29T17:07:42.162Z,72.64
2018-01-29T17:10:10.142Z,72.52
2018-01-29T17:12:37.671Z,72.42
2018-01-29T17:15:05.658Z,73.02
2018-01-29T17:17:33.168Z,73.42
2018-01-29T17:20:02.063Z,73.71
2018-01-29T17:22:29.596Z,73.94
2018-01-29T17:24:57.066Z,74.64
2018-01-29T17:27:25.348Z,74.84
2018-01-29T17:29:53.235Z,75.57
2018-01-29T17:32:20.819Z,75.80
2018-01-29T17:34:48.546Z,76.30
2018-01-29T17:37:16.363Z,76.21
2018-01-29T17:39:44.075Z,76.48
2018-01-29T17:42:11.608Z,76.29
2018-01-29T17:44:39.145Z,76.50
2018-01-29T17:47:06.664Z,76.88
2018-01-29T17:49:34.455Z,77.05
2018-01-29T17:52:03.216Z,77.26
2018-01-29T17:54:30.796Z,77.19
2018-01-29T17:56:58.530Z,77.42
2018-01-29T17:59:26.021Z,77.43
2018-01-29T18:01:53.739Z,77.64
2018-01-29T18:04:21.355Z,77.78
2018-01-29T18:06:48.814Z,77.82
2018-01-29T18:09:16.857Z,77.89
2018-01-29T18:11:44.432Z,77.94
2018-01-29T18:14:11.943Z,78.26
2018-01-29T18:16:39.456Z,78.39
2018-01-29T18:19:07.839Z,78.37
2018-01-29T18:21:35.623Z,78.54
2018-01-29T18:24:03.375Z,78.50
2018-01-29T18:26:30.944Z,78.98
2018-01-29T18:28:58.431Z,78.69
2018-01-29T18:31:25.917Z,79.18
2018-01-29T18:33:53.398Z,79.17
2018-01-29T18:36:20.879Z,78.87
2018-01-29T18:38:48.361Z,79.05
2018-01-29T18:41:15.832Z,79.47
2018-01-29T18:43:43.318Z,79.29
2018-01-29T18:46:10.860Z,79.57
2018-01-29T18:48:39.347Z,80.25
2018-01-29T18:51:06.808Z,80.10
2018-01-29T18:53:34.290Z,80.36
2018-01-29T18:56:01.763Z,80.54
2018-01-29T18:58:29.243Z,80.06
2018-01-29T19:00:56.739Z,80.27
2018-01-29T19:03:24.226Z,80.77
2018-01-29T19:05:51.692Z,80.44
2018-01-29T19:08:19.204Z,80.49
2018-01-29T19:13:20.548Z,81.57
2018-01-29T19:15:48.012Z,81.86
2018-01-29T19:18:15.507Z,83.09
2018-01-29T19:20:43.047Z,83.36
2018-01-29T19:23:10.802Z,83.15
2018-01-29T19:25:38.365Z,82.71
2018-01-29T19:28:05.868Z,82.46
2018-01-29T19:30:33.534Z,82.36
2018-01-29T19:33:01.056Z,82.79
2018-01-29T19:35:28.624Z,83.22
2018-01-29T19:37:56.177Z,83.73
2018-01-29T19:40:26.977Z,84.39
2018-01-29T19:42:54.563Z,84.87
2018-01-29T19:45:22.156Z,84.71
2018-01-29T19:47:49.627Z,85.55
2018-01-29T19:50:17.420Z,86.13
2018-01-29T19:52:44.911Z,86.87
2018-01-29T19:55:12.460Z,87.96
2018-01-29T19:57:39.998Z,88.85
2018-01-29T20:00:07.534Z,89.80
2018-01-29T20:02:35.110Z,89.75
2018-01-29T20:05:02.688Z,100.00
2018-01-29T20:07:30.293Z,100.00
2018-01-29T20:09:57.820Z,100.00
2018-01-29T20:12:25.420Z,100.00
2018-01-29T20:14:53.003Z,100.00
2018-01-29T20:17:20.580Z,89.38
2018-01-29T20:19:48.120Z,88.76
2018-01-29T20:22:15.632Z,88.75
2018-01-29T20:24:43.143Z,89.02
2018-01-29T20:27:10.620Z,89.58
2018-01-29T20:29:38.132Z,89.12
2018-01-29T20:32:05.671Z,89.61
2018-01-29T20:34:33.142Z,88.80
2018-01-29T20:37:00.665Z,89.23
2018-01-29T20:39:28.210Z,88.27
2018-01-29T20:41:55.687Z,88.04
2018-01-29T20:44:23.172Z,87.74
2018-01-29T20:46:50.625Z,87.49
2018-01-29T20:49:18.895Z,87.21
2018-01-29T20:51:46.375Z,87.59
2018-01-29T20:54:13.826Z,85.87
2018-01-29T20:56:41.310Z,85.05
2018-01-29T20:59:08.767Z,85.75
2018-01-29T21:01:36.247Z,85.59
2018-01-29T21:04:03.877Z,85.44
2018-01-29T21:06:31.387Z,86.14
2018-01-29T21:08:58.845Z,85.92
2018-01-29T21:11:26.322Z,86.23
2018-01-29T21:13:53.779Z,85.62
2018-01-29T21:16:21.282Z,85.54
2018-01-29T21:18:48.736Z,84.06
2018-01-29T21:21:16.230Z,84.13
2018-01-29T21:23:43.678Z,83.80
2018-01-29T21:26:11.151Z,84.46
2018-01-29T21:28:38.606Z,83.84
2018-01-29T21:31:06.093Z,83.54
2018-01-29T21:33:33.546Z,82.86
2018-01-29T21:36:01.052Z,83.27
2018-01-29T21:38:28.508Z,83.00
2018-01-29T21:40:55.987Z,83.22
2018-01-29T21:43:23.446Z,83.88
2018-01-29T21:45:50.924Z,83.90
2018-01-29T21:48:18.388Z,83.75
2018-01-29T21:50:45.883Z,84.49
2018-01-29T21:53:13.345Z,83.86
2018-01-29T21:55:40.848Z,84.12
2018-01-29T21:58:08.318Z,84.03
2018-01-29T22:00:35.794Z,84.16
2018-01-29T22:03:03.246Z,84.46
2018-01-29T22:05:30.732Z,84.69
2018-01-29T22:07:58.182Z,85.34
2018-01-29T22:10:25.643Z,85.06
2018-01-29T22:12:53.118Z,84.87
2018-01-29T22:15:20.567Z,85.77
2018-01-29T22:17:48.039Z,85.68
2018-01-29T22:20:15.494Z,83.93
2018-01-29T22:22:42.998Z,82.26
2018-01-29T22:25:10.447Z,82.04
2018-01-29T22:27:37.918Z,82.31
2018-01-29T22:30:05.372Z,82.57
2018-01-29T22:32:32.847Z,82.73
2018-01-29T22:35:00.303Z,82.68
2018-01-29T22:37:27.784Z,82.67
2018-01-29T22:39:55.248Z,83.00
2018-01-29T22:42:22.723Z,83.52
2018-01-29T22:44:50.211Z,84.17
2018-01-29T22:47:17.822Z,84.70
2018-01-29T22:49:45.277Z,85.76
2018-01-29T22:52:12.748Z,86.17
2018-01-29T22:54:40.206Z,87.54
2018-01-29T22:57:07.671Z,87.66
2018-01-29T22:59:35.137Z,88.16
2018-01-29T23:02:02.602Z,89.05
2018-01-29T23:04:30.140Z,89.35
2018-01-29T23:06:57.599Z,88.81
2018-01-29T23:09:25.055Z,89.16
2018-01-29T23:11:52.527Z,89.32
2018-01-29T23:14:19.974Z,89.28
2018-01-29T23:16:47.446Z,89.40
2018-01-29T23:19:14.899Z,89.05
2018-01-29T23:21:42.375Z,89.17
2018-01-29T23:24:09.828Z,89.09
2018-01-29T23:26:37.303Z,89.11
2018-01-29T23:29:04.763Z,88.52
2018-01-29T23:31:32.214Z,88.43
2018-01-29T23:33:59.690Z,87.96
2018-01-29T23:36:27.147Z,88.33
2018-01-29T23:38:54.632Z,88.93
2018-01-29T23:41:22.090Z,89.12
2018-01-29T23:43:49.562Z,88.94
2018-01-29T23:46:17.067Z,89.20
2018-01-29T23:48:44.554Z,89.31
2018-01-29T23:51:12.015Z,89.42
2018-01-29T23:53:39.526Z,89.33
2018-01-29T23:56:06.987Z,89.37
2018-01-29T23:58:34.463Z,89.04
